createdAt,value
2023-11-19T00:00:12.782Z,1.67
2023-11-19T00:02:43.197Z,1.75
2023-11-19T00:05:12.900Z,1.80
2023-11-19T00:07:43.343Z,1.70
2023-11-19T00:10:12.137Z,1.90
2023-11-19T00:12:40.868Z,2.00
2023-11-19T00:15:12.213Z,1.88
2023-11-19T00:17:41.932Z,2.10
2023-11-19T00:20:09.172Z,1.85
2023-11-19T00:22:35.773Z,1.95
2023-11-19T00:25:03.198Z,2.03
2023-11-19T00:27:29.887Z,1.92
2023-11-19T00:29:56.492Z,1.98
2023-11-19T00:32:23.169Z,2.38
2023-11-19T00:34:49.821Z,2.35
2023-11-19T00:37:17.303Z,2.83
2023-11-19T00:39:45.461Z,2.28
2023-11-19T00:42:12.241Z,2.80
2023-11-19T00:44:38.952Z,2.63
2023-11-19T00:47:06.255Z,3.28
2023-11-19T00:49:36.111Z,2.25
2023-11-19T00:52:03.387Z,2.25
2023-11-19T00:54:30.025Z,2.70
2023-11-19T00:56:56.652Z,2.60
2023-11-19T00:59:23.232Z,2.30
2023-11-19T01:01:50.076Z,2.65
2023-11-19T01:04:16.757Z,2.50
2023-11-19T01:09:13.014Z,2.75
2023-11-19T01:11:40.260Z,2.53
2023-11-19T01:14:06.843Z,2.13
2023-11-19T01:16:34.003Z,2.17
2023-11-19T01:19:12.505Z,2.13
2023-11-19T01:21:44.730Z,1.98
2023-11-19T01:24:13.479Z,2.08
2023-11-19T01:26:40.407Z,2.45
2023-11-19T01:29:07.568Z,2.63
2023-11-19T01:31:34.976Z,2.40
2023-11-19T01:34:01.734Z,1.98
2023-11-19T01:36:29.125Z,2.10
2023-11-19T01:38:55.801Z,2.55
2023-11-19T01:41:22.414Z,2.10
2023-11-19T01:43:49.111Z,2.15
2023-11-19T01:46:15.860Z,1.80
2023-11-19T01:48:46.172Z,1.83
2023-11-19T01:51:14.495Z,2.20
2023-11-19T01:53:41.500Z,2.17
2023-11-19T01:56:10.440Z,1.85
2023-11-19T01:58:37.994Z,1.50
2023-11-19T02:01:06.616Z,2.40
2023-11-19T02:03:34.097Z,1.33
2023-11-19T02:06:01.890Z,1.35
2023-11-19T02:08:28.510Z,1.60
2023-11-19T02:10:58.492Z,1.50
2023-11-19T02:13:26.973Z,1.45
2023-11-19T02:15:54.020Z,1.58
2023-11-19T02:18:24.421Z,1.50
2023-11-19T02:20:51.736Z,1.55
2023-11-19T02:23:21.079Z,1.10
2023-11-19T02:26:15.724Z,1.17
2023-11-19T02:28:43.987Z,1.02
2023-11-19T02:31:11.437Z,0.80
2023-11-19T02:33:41.688Z,0.82
2023-11-19T02:36:09.526Z,0.90
2023-11-19T02:38:36.936Z,1.08
2023-11-19T02:41:07.737Z,0.90
2023-11-19T02:43:35.283Z,0.90
2023-11-19T02:48:39.462Z,0.90
2023-11-19T02:51:10.344Z,0.93
2023-11-19T02:53:40.781Z,1.20
2023-11-19T02:56:13.166Z,0.75
2023-11-19T02:58:40.219Z,1.02
2023-11-19T03:01:24.136Z,0.98
2023-11-19T03:03:55.933Z,1.20
2023-11-19T03:06:25.799Z,1.00
2023-11-19T03:08:52.460Z,1.02
2023-11-19T03:11:19.223Z,1.20
2023-11-19T03:13:45.922Z,0.80
2023-11-19T03:16:12.640Z,0.60
2023-11-19T03:18:40.370Z,1.15
2023-11-19T03:21:09.767Z,0.88
2023-11-19T03:23:37.551Z,1.10
2023-11-19T03:26:05.952Z,0.98
2023-11-19T03:28:33.033Z,1.17
2023-11-19T03:30:59.940Z,1.00
2023-11-19T03:33:28.762Z,1.00
2023-11-19T03:35:57.430Z,1.20
2023-11-19T03:38:25.632Z,0.90
2023-11-19T03:40:52.313Z,1.20
2023-11-19T03:43:20.370Z,0.90
2023-11-19T03:45:47.665Z,0.90
2023-11-19T03:48:17.061Z,0.90
2023-11-19T03:50:44.352Z,0.82
2023-11-19T03:53:12.702Z,1.02
2023-11-19T03:55:39.362Z,0.90
2023-11-19T03:58:06.033Z,1.38
2023-11-19T04:00:33.370Z,1.00
2023-11-19T04:03:00.079Z,1.17
2023-11-19T04:05:26.744Z,1.00
2023-11-19T04:07:53.286Z,1.25
2023-11-19T04:10:20.016Z,1.10
2023-11-19T04:12:47.166Z,1.30
2023-11-19T04:15:15.244Z,1.23
2023-11-19T04:17:41.850Z,1.25
2023-11-19T04:20:13.145Z,1.30
2023-11-19T04:22:39.786Z,1.20
2023-11-19T04:25:06.864Z,1.08
2023-11-19T04:27:33.594Z,1.27
2023-11-19T04:30:02.447Z,0.90
2023-11-19T04:32:29.061Z,1.10
2023-11-19T04:34:55.689Z,1.27
2023-11-19T04:37:22.345Z,1.20
2023-11-19T04:39:49.062Z,1.10
2023-11-19T04:42:18.029Z,1.02
2023-11-19T04:44:44.919Z,0.93
2023-11-19T04:47:12.113Z,0.95
2023-11-19T04:49:43.861Z,0.73
2023-11-19T04:52:10.622Z,0.90
2023-11-19T04:54:41.372Z,1.17
2023-11-19T04:57:08.011Z,0.90
2023-11-19T04:59:35.683Z,0.80
2023-11-19T05:02:02.275Z,1.00
2023-11-19T05:04:29.018Z,1.17
2023-11-19T05:06:55.851Z,0.75
2023-11-19T05:09:22.474Z,1.10
2023-11-19T05:11:52.376Z,1.05
2023-11-19T05:14:22.943Z,1.30
2023-11-19T05:16:49.970Z,1.20
2023-11-19T05:19:17.019Z,1.05
2023-11-19T05:21:44.682Z,1.10
2023-11-19T05:24:12.738Z,1.20
2023-11-19T05:26:39.865Z,0.90
2023-11-19T05:29:06.472Z,1.08
2023-11-19T05:31:36.249Z,1.20
2023-11-19T05:34:03.651Z,1.13
2023-11-19T05:36:30.820Z,1.10
2023-11-19T05:38:57.472Z,1.02
2023-11-19T05:41:24.098Z,0.95
2023-11-19T05:43:50.743Z,1.13
2023-11-19T05:46:20.320Z,1.20
2023-11-19T05:48:48.193Z,1.20
2023-11-19T05:51:16.489Z,1.33
2023-11-19T05:53:43.403Z,1.25
2023-11-19T05:56:10.593Z,1.30
2023-11-19T05:58:38.315Z,1.38
2023-11-19T06:01:06.288Z,1.70
2023-11-19T06:03:33.017Z,1.90
2023-11-19T06:05:59.794Z,1.30
2023-11-19T06:08:28.202Z,1.42
2023-11-19T06:10:54.958Z,1.35
2023-11-19T06:13:24.973Z,1.58
2023-11-19T06:15:52.249Z,1.60
2023-11-19T06:18:21.083Z,1.80
2023-11-19T06:20:48.077Z,1.40
2023-11-19T06:23:14.651Z,1.83
2023-11-19T06:25:41.298Z,1.65
2023-11-19T06:28:08.002Z,1.73
2023-11-19T06:30:34.728Z,1.67
2023-11-19T06:33:01.596Z,1.83
2023-11-19T06:35:30.240Z,2.00
2023-11-19T06:37:57.157Z,1.88
2023-11-19T06:40:23.795Z,1.83
2023-11-19T06:42:50.394Z,1.83
2023-11-19T06:45:17.061Z,1.80
2023-11-19T06:47:43.782Z,2.10
2023-11-19T06:50:10.598Z,2.25
2023-11-19T06:52:38.391Z,2.20
2023-11-19T06:55:09.218Z,2.13
2023-11-19T06:57:36.328Z,1.80
2023-11-19T07:00:03.813Z,1.73
2023-11-19T07:02:30.575Z,2.03
2023-11-19T07:04:57.245Z,2.20
2023-11-19T07:07:23.990Z,2.17
2023-11-19T07:09:51.168Z,2.25
2023-11-19T07:12:18.010Z,2.03
2023-11-19T07:14:44.617Z,1.90
2023-11-19T07:17:11.307Z,1.83
2023-11-19T07:19:39.123Z,2.25
2023-11-19T07:22:07.228Z,1.90
2023-11-19T07:24:33.993Z,2.10
2023-11-19T07:27:00.931Z,1.83
2023-11-19T07:29:29.470Z,1.80
2023-11-19T07:31:57.497Z,1.85
2023-11-19T07:34:25.643Z,1.50
2023-11-19T07:36:52.400Z,2.13
2023-11-19T07:39:19.002Z,1.52
2023-11-19T07:41:45.609Z,1.60
2023-11-19T07:44:12.530Z,1.73
2023-11-19T07:46:39.285Z,1.40
2023-11-19T07:49:05.952Z,1.52
2023-11-19T07:51:32.722Z,2.03
2023-11-19T07:53:59.520Z,1.55
2023-11-19T07:56:26.306Z,1.98
2023-11-19T07:58:53.846Z,1.65
2023-11-19T08:01:20.525Z,1.40
2023-11-19T08:06:16.802Z,1.75
2023-11-19T08:08:43.977Z,2.10
2023-11-19T08:11:10.800Z,3.10
2023-11-19T08:13:37.467Z,3.40
2023-11-19T08:16:04.362Z,2.42
2023-11-19T08:18:30.995Z,2.05
2023-11-19T08:20:59.189Z,2.20
2023-11-19T08:23:26.741Z,4.78
2023-11-19T08:25:53.812Z,3.42
2023-11-19T08:28:20.540Z,3.47
2023-11-19T08:30:47.380Z,2.53
2023-11-19T08:33:14.053Z,3.75
2023-11-19T08:35:40.911Z,2.55
2023-11-19T08:38:07.848Z,3.20
2023-11-19T08:40:34.559Z,2.47
2023-11-19T08:43:01.781Z,2.60
2023-11-19T08:45:28.392Z,2.38
2023-11-19T08:47:55.007Z,1.83
2023-11-19T08:50:21.761Z,2.10
2023-11-19T08:52:48.374Z,2.22
2023-11-19T08:55:15.010Z,1.85
2023-11-19T08:57:41.676Z,1.90
2023-11-19T09:00:09.163Z,2.42
2023-11-19T09:02:39.596Z,2.70
2023-11-19T09:05:10.180Z,2.47
2023-11-19T09:07:36.999Z,2.30
2023-11-19T09:10:06.086Z,1.92
2023-11-19T09:12:32.810Z,1.52
2023-11-19T09:14:59.382Z,1.67
2023-11-19T09:17:26.020Z,1.70
2023-11-19T09:19:52.718Z,1.70
2023-11-19T09:22:19.369Z,1.35
2023-11-19T09:24:46.078Z,1.33
2023-11-19T09:27:12.741Z,1.73
2023-11-19T09:29:39.459Z,1.23
2023-11-19T09:32:06.970Z,1.25
2023-11-19T09:34:33.604Z,1.45
2023-11-19T09:37:00.269Z,0.98
2023-11-19T09:39:26.879Z,1.05
2023-11-19T09:41:53.794Z,1.15
2023-11-19T09:44:20.846Z,1.13
2023-11-19T09:46:50.024Z,0.98
2023-11-19T09:49:36.082Z,1.40
2023-11-19T09:52:03.897Z,2.03
2023-11-19T09:54:30.603Z,2.00
2023-11-19T09:57:03.677Z,1.80
2023-11-19T09:59:34.642Z,1.80
2023-11-19T10:02:01.541Z,1.10
2023-11-19T10:04:31.428Z,1.05
2023-11-19T10:06:58.407Z,1.08
2023-11-19T10:09:25.207Z,1.20
2023-11-19T10:11:51.994Z,0.70
2023-11-19T10:14:23.888Z,0.90
2023-11-19T10:16:50.587Z,1.30
2023-11-19T10:19:21.624Z,0.70
2023-11-19T10:21:49.040Z,0.90
2023-11-19T10:24:30.112Z,0.88
2023-11-19T10:26:58.524Z,0.70
2023-11-19T10:29:25.488Z,0.93
2023-11-19T10:32:23.564Z,0.90
2023-11-19T10:34:45.780Z,0.93
2023-11-19T10:37:33.384Z,0.70
2023-11-19T10:40:00.208Z,1.20
2023-11-19T10:42:26.827Z,1.40
2023-11-19T10:44:53.471Z,2.75
2023-11-19T10:47:37.752Z,1.92
2023-11-19T10:50:05.873Z,1.67
2023-11-19T10:52:33.815Z,1.23
2023-11-19T10:55:02.569Z,1.25
2023-11-19T10:57:33.899Z,1.30
2023-11-19T11:00:03.496Z,1.38
2023-11-19T11:02:35.991Z,1.50
2023-11-19T11:05:04.101Z,1.45
2023-11-19T11:07:39.485Z,1.52
2023-11-19T11:10:10.761Z,1.40
2023-11-19T11:12:43.105Z,1.30
2023-11-19T11:15:15.526Z,0.98
2023-11-19T11:17:43.894Z,1.08
2023-11-19T11:20:11.363Z,1.00
2023-11-19T11:22:58.947Z,1.40
2023-11-19T11:25:47.617Z,1.23
2023-11-19T11:28:22.037Z,0.60
2023-11-19T11:31:03.872Z,1.30
2023-11-19T11:36:31.830Z,1.30
2023-11-19T11:39:01.595Z,1.20
2023-11-19T11:41:30.409Z,1.25
2023-11-19T11:43:57.742Z,1.45
2023-11-19T11:46:33.979Z,1.15
2023-11-19T11:49:05.096Z,1.65
2023-11-19T11:51:46.982Z,1.10
2023-11-19T11:54:19.714Z,1.40
2023-11-19T11:57:13.723Z,1.80
2023-11-19T11:59:41.215Z,1.60
2023-11-19T12:02:10.086Z,2.10
2023-11-19T12:04:37.618Z,1.60
2023-11-19T12:07:08.345Z,1.40
2023-11-19T12:09:35.378Z,1.92
2023-11-19T12:12:24.778Z,2.47
2023-11-19T12:15:01.098Z,1.55
2023-11-19T12:17:34.056Z,2.15
2023-11-19T12:20:02.374Z,1.60
2023-11-19T12:22:29.216Z,1.60
2023-11-19T12:24:56.883Z,1.77
2023-11-19T12:27:23.844Z,1.38
2023-11-19T12:29:50.803Z,2.10
2023-11-19T12:32:17.571Z,1.35
2023-11-19T12:34:45.822Z,2.50
2023-11-19T12:37:12.575Z,1.02
2023-11-19T12:39:39.263Z,1.40
2023-11-19T12:42:06.331Z,1.25
2023-11-19T12:44:34.460Z,1.85
2023-11-19T12:47:08.638Z,1.35
2023-11-19T12:49:35.362Z,1.53
2023-11-19T12:52:02.539Z,0.93
2023-11-19T12:54:38.542Z,1.83
2023-11-19T12:57:06.398Z,1.02
2023-11-19T12:59:33.146Z,1.95
2023-11-19T13:02:00.006Z,1.30
2023-11-19T13:04:33.937Z,1.20
2023-11-19T13:09:30.925Z,1.30
2023-11-19T13:11:57.721Z,1.10
2023-11-19T13:14:24.618Z,1.45
2023-11-19T13:16:51.376Z,0.90
2023-11-19T13:19:19.950Z,1.02
2023-11-19T13:21:49.725Z,1.40
2023-11-19T13:24:16.504Z,1.50
2023-11-19T13:26:43.162Z,1.50
2023-11-19T13:29:11.496Z,1.38
2023-11-19T13:31:39.256Z,1.63
2023-11-19T13:34:08.314Z,1.08
2023-11-19T13:36:35.527Z,1.30
2023-11-19T13:39:02.385Z,1.60
2023-11-19T13:41:29.071Z,1.55
2023-11-19T13:43:56.282Z,1.30
2023-11-19T13:46:22.962Z,1.77
2023-11-19T13:48:50.898Z,1.10
2023-11-19T13:51:17.871Z,0.90
2023-11-19T13:56:14.220Z,1.48
2023-11-19T13:58:41.580Z,1.50
2023-11-19T14:01:08.689Z,0.88
2023-11-19T14:03:35.762Z,0.95
2023-11-19T14:06:02.708Z,1.00
2023-11-19T14:08:29.343Z,1.13
2023-11-19T14:10:56.970Z,1.45
2023-11-19T14:13:24.481Z,1.10
2023-11-19T14:15:51.800Z,1.83
2023-11-19T14:18:19.172Z,1.13
2023-11-19T14:20:46.739Z,1.63
2023-11-19T14:23:13.558Z,1.50
2023-11-19T14:25:40.150Z,0.88
2023-11-19T14:28:07.429Z,1.10
2023-11-19T14:30:35.547Z,0.80
2023-11-19T14:33:04.105Z,1.00
2023-11-19T14:35:31.353Z,1.10
2023-11-19T14:37:58.218Z,0.90
2023-11-19T14:40:42.238Z,1.00
2023-11-19T14:43:11.643Z,0.90
2023-11-19T14:45:45.136Z,1.33
2023-11-19T14:48:16.246Z,0.70
2023-11-19T14:50:42.867Z,0.82
2023-11-19T14:53:09.482Z,1.20
2023-11-19T14:55:36.061Z,1.40
2023-11-19T14:58:08.590Z,1.08
2023-11-19T15:00:37.136Z,0.60
2023-11-19T15:03:04.009Z,0.82
2023-11-19T15:05:30.745Z,0.73
2023-11-19T15:07:57.387Z,1.30
2023-11-19T15:10:25.748Z,1.50
2023-11-19T15:12:54.059Z,1.08
2023-11-19T15:17:50.914Z,1.38
2023-11-19T15:20:19.596Z,0.73
2023-11-19T15:22:46.442Z,0.75
2023-11-19T15:25:13.203Z,0.70
2023-11-19T15:27:39.815Z,1.00
2023-11-19T15:30:07.172Z,1.20
2023-11-19T15:32:34.040Z,1.17
2023-11-19T15:35:01.304Z,1.50
2023-11-19T15:37:28.008Z,1.00
2023-11-19T15:39:55.721Z,1.48
2023-11-19T15:42:23.146Z,1.00
2023-11-19T15:44:50.782Z,0.73
2023-11-19T15:47:17.429Z,1.23
2023-11-19T15:49:44.128Z,0.90
2023-11-19T15:52:10.745Z,1.00
2023-11-19T15:54:38.114Z,0.93
2023-11-19T15:57:05.053Z,1.92
2023-11-19T15:59:32.498Z,1.00
2023-11-19T16:01:59.268Z,1.05
2023-11-19T16:04:25.960Z,1.08
2023-11-19T16:06:52.550Z,1.58
2023-11-19T16:09:20.282Z,0.90
2023-11-19T16:11:54.281Z,1.25
2023-11-19T16:14:25.119Z,1.27
2023-11-19T16:16:52.044Z,0.98
2023-11-19T16:19:18.695Z,2.67
2023-11-19T16:21:46.712Z,1.88
2023-11-19T16:24:14.928Z,2.78
2023-11-19T16:26:41.649Z,1.17
2023-11-19T16:29:08.372Z,1.80
2023-11-19T16:31:35.103Z,1.40
2023-11-19T16:34:01.751Z,1.55
2023-11-19T16:36:28.726Z,0.90
2023-11-19T16:38:55.385Z,0.90
2023-11-19T16:41:35.904Z,1.00
2023-11-19T16:44:08.319Z,1.35
2023-11-19T16:46:35.079Z,1.15
2023-11-19T16:49:01.715Z,1.02
2023-11-19T16:51:28.446Z,1.20
2023-11-19T16:53:55.059Z,1.25
2023-11-19T16:56:21.864Z,1.00
2023-11-19T16:58:48.482Z,1.08
2023-11-19T17:01:15.823Z,1.17
2023-11-19T17:03:42.672Z,0.95
2023-11-19T17:06:10.190Z,1.40
2023-11-19T17:08:38.569Z,0.98
2023-11-19T17:11:09.330Z,0.75
2023-11-19T17:13:36.149Z,1.02
2023-11-19T17:16:03.643Z,1.20
2023-11-19T17:18:31.017Z,0.90
2023-11-19T17:20:59.301Z,0.85
2023-11-19T17:23:26.025Z,0.90
2023-11-19T17:25:53.544Z,1.40
2023-11-19T17:28:20.300Z,1.35
2023-11-19T17:30:47.087Z,1.10
2023-11-19T17:33:13.824Z,0.73
2023-11-19T17:35:41.132Z,1.40
2023-11-19T17:38:26.695Z,0.88
2023-11-19T17:40:57.766Z,1.23
2023-11-19T17:43:28.025Z,1.02
2023-11-19T17:45:58.096Z,1.58
2023-11-19T17:48:24.922Z,1.15
2023-11-19T17:50:51.709Z,1.25
2023-11-19T17:53:18.370Z,0.93
2023-11-19T17:55:45.241Z,0.80
2023-11-19T17:58:11.815Z,1.30
2023-11-19T18:00:38.646Z,1.35
2023-11-19T18:03:05.681Z,0.93
2023-11-19T18:05:32.480Z,1.38
2023-11-19T18:07:59.218Z,1.58
2023-11-19T18:10:25.796Z,1.25
2023-11-19T18:12:52.487Z,1.17
2023-11-19T18:15:19.216Z,1.63
2023-11-19T18:17:46.087Z,1.00
2023-11-19T18:20:15.235Z,0.82
2023-11-19T18:22:43.110Z,0.90
2023-11-19T18:25:11.469Z,1.40
2023-11-19T18:27:39.297Z,1.33
2023-11-19T18:30:11.104Z,1.00
2023-11-19T18:32:38.673Z,1.45
2023-11-19T18:35:06.179Z,1.25
2023-11-19T18:37:33.056Z,0.95
2023-11-19T18:40:00.831Z,1.35
2023-11-19T18:42:27.505Z,1.02
2023-11-19T18:44:54.140Z,1.35
2023-11-19T18:47:20.739Z,1.05
2023-11-19T18:49:47.695Z,1.10
2023-11-19T18:52:14.288Z,1.48
2023-11-19T18:54:40.907Z,0.80
2023-11-19T18:57:07.746Z,1.65
2023-11-19T18:59:34.980Z,1.55
2023-11-19T19:02:01.718Z,1.08
2023-11-19T19:04:29.743Z,1.55
2023-11-19T19:06:57.419Z,1.45
2023-11-19T19:09:24.013Z,1.30
2023-11-19T19:11:51.677Z,1.77
2023-11-19T19:14:18.376Z,1.38
2023-11-19T19:16:44.979Z,1.02
2023-11-19T19:19:11.675Z,0.75
2023-11-19T19:21:38.557Z,1.23
2023-11-19T19:24:09.530Z,1.25
2023-11-19T19:26:37.808Z,1.30
2023-11-19T19:29:05.060Z,1.20
2023-11-19T19:31:31.897Z,1.48
2023-11-19T19:33:59.085Z,1.48
2023-11-19T19:36:28.946Z,1.55
2023-11-19T19:38:56.230Z,1.13
2023-11-19T19:41:24.491Z,1.88
2023-11-19T19:43:51.275Z,1.65
2023-11-19T19:46:17.898Z,1.15
2023-11-19T19:48:44.930Z,1.05
2023-11-19T19:51:12.449Z,1.50
2023-11-19T19:53:39.172Z,1.23
2023-11-19T19:56:07.977Z,1.20
2023-11-19T19:58:34.714Z,1.20
2023-11-19T20:01:03.405Z,1.40
2023-11-19T20:03:30.392Z,1.67
2023-11-19T20:05:58.901Z,1.20
2023-11-19T20:08:26.582Z,1.10
2023-11-19T20:10:53.249Z,1.58
2023-11-19T20:13:23.720Z,1.17
2023-11-19T20:15:53.776Z,1.27
2023-11-19T20:18:20.931Z,1.05
2023-11-19T20:20:49.013Z,1.70
2023-11-19T20:23:15.732Z,1.55
2023-11-19T20:25:43.486Z,1.10
2023-11-19T20:28:10.366Z,1.38
2023-11-19T20:30:37.073Z,1.52
2023-11-19T20:33:03.942Z,1.75
2023-11-19T20:35:31.080Z,1.70
2023-11-19T20:37:57.781Z,1.35
2023-11-19T20:40:24.372Z,1.58
2023-11-19T20:42:52.339Z,1.35
2023-11-19T20:45:20.520Z,1.40
2023-11-19T20:47:50.573Z,1.05
2023-11-19T20:50:17.451Z,1.70
2023-11-19T20:52:44.431Z,1.25
2023-11-19T20:55:12.503Z,1.60
2023-11-19T20:57:39.281Z,1.50
2023-11-19T21:00:09.986Z,1.60
2023-11-19T21:02:36.868Z,1.42
2023-11-19T21:05:03.787Z,0.98
2023-11-19T21:07:30.465Z,1.20
2023-11-19T21:09:57.192Z,1.90
2023-11-19T21:12:23.847Z,1.23
2023-11-19T21:14:50.447Z,1.45
2023-11-19T21:17:19.236Z,1.50
2023-11-19T21:19:47.528Z,1.27
2023-11-19T21:22:14.487Z,1.50
2023-11-19T21:24:42.497Z,1.17
2023-11-19T21:27:09.252Z,1.45
2023-11-19T21:29:35.996Z,1.80
2023-11-19T21:32:02.780Z,1.63
2023-11-19T21:34:30.204Z,1.48
2023-11-19T21:36:56.887Z,1.38
2023-11-19T21:39:24.223Z,2.58
2023-11-19T21:41:55.266Z,1.58
2023-11-19T21:44:22.408Z,1.65
2023-11-19T21:46:49.297Z,1.88
2023-11-19T21:49:15.915Z,2.15
2023-11-19T21:51:43.154Z,2.22
2023-11-19T21:54:09.850Z,2.17
2023-11-19T21:56:36.955Z,1.55
2023-11-19T21:59:04.052Z,1.80
2023-11-19T22:01:30.889Z,1.63
2023-11-19T22:03:57.751Z,2.15
2023-11-19T22:06:24.540Z,1.65
2023-11-19T22:08:51.166Z,1.38
2023-11-19T22:11:17.748Z,1.60
2023-11-19T22:13:44.647Z,1.67
2023-11-19T22:16:12.347Z,1.02
2023-11-19T22:18:39.063Z,1.40
2023-11-19T22:21:05.725Z,1.55
2023-11-19T22:23:32.316Z,1.38
2023-11-19T22:25:58.902Z,1.30
2023-11-19T22:28:25.484Z,1.75
2023-11-19T22:30:53.772Z,1.50
2023-11-19T22:33:20.458Z,1.20
2023-11-19T22:35:47.318Z,1.25
2023-11-19T22:38:14.077Z,1.85
2023-11-19T22:40:40.808Z,1.30
2023-11-19T22:43:07.462Z,2.42
2023-11-19T22:45:34.090Z,1.23
2023-11-19T22:48:01.799Z,1.38
2023-11-19T22:50:28.525Z,1.23
2023-11-19T22:52:55.186Z,1.95
2023-11-19T22:55:21.929Z,1.23
2023-11-19T23:00:28.799Z,1.38
2023-11-19T23:02:59.598Z,1.10
2023-11-19T23:05:31.300Z,1.63
2023-11-19T23:07:58.942Z,1.75
2023-11-19T23:10:25.810Z,1.65
2023-11-19T23:12:52.636Z,1.30
2023-11-19T23:15:19.999Z,1.58
2023-11-19T23:17:46.788Z,1.27
2023-11-19T23:20:17.085Z,1.27
2023-11-19T23:22:44.547Z,1.35
2023-11-19T23:25:12.197Z,1.20
2023-11-19T23:27:38.905Z,1.10
2023-11-19T23:30:06.195Z,1.00
2023-11-19T23:32:32.964Z,1.95
2023-11-19T23:34:59.577Z,1.67
2023-11-19T23:37:26.420Z,1.50
2023-11-19T23:39:53.699Z,1.45
2023-11-19T23:42:21.335Z,1.83
2023-11-19T23:44:48.294Z,1.85
2023-11-19T23:47:14.914Z,1.30
2023-11-19T23:49:42.298Z,0.95
2023-11-19T23:52:10.326Z,1.50
2023-11-19T23:54:37.354Z,1.50
2023-11-19T23:57:04.797Z,1.35
2023-11-19T23:59:31.630Z,2.72
